Time;durP1;ratioP1;P1;durP2;ratioP2;P2;SDS_P1;SDS_P2;PMS_P1;PMS_P2;Temp;Humidity;BMP_temperature;BMP_pressure;BME280_temperature;BME280_humidity;BME280_pressure;Samples;Min_cycle;Max_cycle;Signal;HPM_P1;HPM_P2
2022/04/19 00:01:47;;;;;;;9.75;6.10;;;;;;;;;;5017965;28;20129;-79
2022/04/19 00:04:16;;;;;;;9.25;5.60;;;;;;;;;;5018875;28;20049;-79
2022/04/19 00:06:45;;;;;;;8.15;5.25;;;;;;;;;;5018684;28;20056;-79
2022/04/19 00:09:11;;;;;;;9.05;6.13;;;;;;;;;;5021690;28;20523;-79
2022/04/19 00:11:40;;;;;;;10.00;5.60;;;;;;;;;;5018122;28;20046;-78
2022/04/19 00:14:08;;;;;;;8.23;4.68;;;;;;;;;;5017037;28;20080;-78
2022/04/19 00:16:36;;;;;;;6.18;3.85;;;;;;;;;;5016593;28;20061;-78
2022/04/19 00:19:03;;;;;;;7.03;4.10;;;;;;;;;;5026438;28;20049;-79
2022/04/19 00:21:30;;;;;;;6.28;4.07;;;;;;;;;;5033450;28;20452;-78
2022/04/19 00:23:58;;;;;;;7.38;3.90;;;;;;;;;;5019258;28;20417;-79
2022/04/19 00:26:25;;;;;;;7.68;4.18;;;;;;;;;;5015700;28;20058;-79
2022/04/19 00:28:53;;;;;;;7.50;4.65;;;;;;;;;;5015478;28;20050;-79
2022/04/19 00:31:20;;;;;;;5.97;4.32;;;;;;;;;;5015206;28;20057;-79
2022/04/19 00:33:47;;;;;;;10.73;5.53;;;;;;;;;;5022995;28;20060;-78
2022/04/19 00:36:14;;;;;;;10.02;5.85;;;;;;;;;;5023089;28;20046;-80
2022/04/19 00:38:41;;;;;;;7.95;4.45;;;;;;;;;;5021476;28;20138;-78
2022/04/19 00:41:08;;;;;;;5.95;3.70;;;;;;;;;;5024733;28;20654;-79
2022/04/19 00:43:35;;;;;;;6.85;4.40;;;;;;;;;;5024191;28;20038;-78
2022/04/19 00:46:03;;;;;;;9.13;5.45;;;;;;;;;;5011180;28;20050;-79
2022/04/19 00:48:30;;;;;;;9.85;5.50;;;;;;;;;;5000338;28;20050;-79
2022/04/19 00:50:57;;;;;;;7.60;4.70;;;;;;;;;;5003939;28;20077;-79
2022/04/19 00:53:27;;;;;;;6.38;4.35;;;;;;;;;;5004414;28;20062;-77
2022/04/19 00:55:54;;;;;;;9.15;4.22;;;;;;;;;;5006897;28;20054;-79
2022/04/19 00:58:21;;;;;;;7.35;4.20;;;;;;;;;;5006085;28;20082;-79
2022/04/19 01:00:50;;;;;;;7.65;4.18;;;;;;;;;;5005476;28;20047;-78
2022/04/19 01:03:21;;;;;;;7.07;3.92;;;;;;;;;;5001627;28;20082;-77
2022/04/19 01:05:51;;;;;;;;;;;;;;;;;;4997215;28;20051;-78
2022/04/19 01:08:18;;;;;;;6.87;4.43;;;;;;;;;;4997040;28;20497;-79
2022/04/19 01:10:46;;;;;;;8.63;4.85;;;;;;;;;;4999898;28;20306;-78
2022/04/19 01:13:18;;;;;;;5.38;3.70;;;;;;;;;;5000605;28;20061;-79
2022/04/19 01:15:46;;;;;;;5.82;3.30;;;;;;;;;;4999375;28;20043;-78
2022/04/19 01:18:14;;;;;;;4.90;2.72;;;;;;;;;;4997737;28;20062;-79
2022/04/19 01:20:42;;;;;;;4.15;2.45;;;;;;;;;;5000435;28;20046;-79
2022/04/19 01:23:11;;;;;;;4.88;2.67;;;;;;;;;;4998890;28;20046;-79
2022/04/19 01:25:38;;;;;;;3.70;2.20;;;;;;;;;;4997017;28;20540;-79
2022/04/19 01:28:06;;;;;;;4.70;2.20;;;;;;;;;;4995506;28;20425;-78
2022/04/19 01:30:34;;;;;;;4.15;2.22;;;;;;;;;;4996472;28;20433;-79
2022/04/19 01:33:02;;;;;;;6.15;2.80;;;;;;;;;;4998854;28;20046;-79
2022/04/19 01:35:29;;;;;;;5.40;2.58;;;;;;;;;;4999612;28;20050;-80
2022/04/19 01:37:55;;;;;;;3.75;2.45;;;;;;;;;;4998802;28;20172;-79
2022/04/19 01:40:24;;;;;;;5.43;2.65;;;;;;;;;;4998159;28;20073;-80
2022/04/19 01:42:52;;;;;;;12.57;6.35;;;;;;;;;;4998203;28;20050;-79
2022/04/19 01:45:20;;;;;;;8.93;5.13;;;;;;;;;;5002266;28;20042;-79
2022/04/19 01:47:47;;;;;;;9.65;5.28;;;;;;;;;;5018319;28;20068;-80
2022/04/19 01:50:16;;;;;;;10.55;6.63;;;;;;;;;;5017760;28;20064;-79
2022/04/19 01:52:44;;;;;;;9.95;6.43;;;;;;;;;;5017320;28;20574;-79
2022/04/19 01:55:14;;;;;;;14.70;9.45;;;;;;;;;;5019407;28;20109;-78
2022/04/19 01:57:42;;;;;;;13.30;7.47;;;;;;;;;;5022090;28;20108;-79
2022/04/19 02:00:10;;;;;;;12.40;7.35;;;;;;;;;;5022333;28;20302;-78
2022/04/19 02:02:38;;;;;;;11.50;6.25;;;;;;;;;;5019211;28;20050;-77
2022/04/19 02:05:06;;;;;;;11.32;6.22;;;;;;;;;;5015986;28;20050;-78
2022/04/19 02:07:33;;;;;;;8.18;5.40;;;;;;;;;;5016116;28;20057;-80
2022/04/19 02:10:00;;;;;;;7.03;5.15;;;;;;;;;;5017126;28;20050;-79
2022/04/19 02:12:27;;;;;;;8.48;5.10;;;;;;;;;;5014994;28;20046;-78
2022/04/19 02:14:56;;;;;;;7.13;4.57;;;;;;;;;;5015948;28;20050;-79
2022/04/19 02:17:23;;;;;;;8.90;5.20;;;;;;;;;;5015724;28;20115;-79
2022/04/19 02:19:51;;;;;;;8.48;5.13;;;;;;;;;;5016281;28;20129;-78
2022/04/19 02:22:19;;;;;;;10.23;5.30;;;;;;;;;;5017031;28;20046;-79
2022/04/19 02:24:46;;;;;;;7.15;5.30;;;;;;;;;;5017426;28;20050;-78
2022/04/19 02:27:13;;;;;;;9.52;5.57;;;;;;;;;;5015931;28;20053;-78
2022/04/19 02:29:40;;;;;;;8.10;5.47;;;;;;;;;;5017122;28;20631;-79
2022/04/19 02:32:08;;;;;;;9.57;6.32;;;;;;;;;;5016308;28;20413;-78
2022/04/19 02:34:35;;;;;;;9.70;5.75;;;;;;;;;;5014352;28;20073;-78
2022/04/19 02:37:02;;;;;;;8.45;5.35;;;;;;;;;;5015355;28;20057;-78
2022/04/19 02:39:30;;;;;;;6.25;4.13;;;;;;;;;;5017582;28;20520;-78
2022/04/19 02:41:56;;;;;;;9.48;4.15;;;;;;;;;;5021818;28;20053;-78
2022/04/19 02:44:23;;;;;;;7.63;4.57;;;;;;;;;;5019939;28;20058;-78
2022/04/19 02:46:50;;;;;;;9.02;5.30;;;;;;;;;;5004808;28;20050;-79
2022/04/19 02:49:18;;;;;;;7.85;4.47;;;;;;;;;;4998336;28;20078;-78
2022/04/19 02:51:46;;;;;;;9.80;5.68;;;;;;;;;;4995174;28;20057;-78
2022/04/19 02:54:13;;;;;;;7.50;4.80;;;;;;;;;;4995450;28;20588;-78
2022/04/19 02:56:42;;;;;;;5.63;3.70;;;;;;;;;;4994421;28;20053;-79
2022/04/19 02:59:09;;;;;;;7.43;3.78;;;;;;;;;;4995248;28;20699;-79
2022/04/19 03:01:36;;;;;;;5.72;3.15;;;;;;;;;;4995545;28;20046;-79
2022/04/19 03:04:03;;;;;;;4.45;2.80;;;;;;;;;;4996427;28;20145;-79
2022/04/19 03:06:31;;;;;;;4.57;2.70;;;;;;;;;;4994688;28;20046;-78
2022/04/19 03:08:58;;;;;;;6.07;2.70;;;;;;;;;;4996028;28;20070;-78
2022/04/19 03:11:25;;;;;;;5.60;2.90;;;;;;;;;;5015564;28;20137;-79
2022/04/19 03:13:51;;;;;;;5.30;2.70;;;;;;;;;;5011883;28;20046;-79
2022/04/19 03:16:18;;;;;;;4.82;2.70;;;;;;;;;;4996460;28;20046;-77
2022/04/19 03:18:45;;;;;;;4.70;2.42;;;;;;;;;;4994792;28;20054;-78
2022/04/19 03:21:12;;;;;;;4.95;2.58;;;;;;;;;;4995013;28;20050;-77
2022/04/19 03:29:13;;;;;;;4.82;2.53;;;;;;;;;;4992216;28;20141;-78
2022/04/19 03:31:40;;;;;;;4.35;2.60;;;;;;;;;;4991966;28;20402;-78
2022/04/19 03:34:08;;;;;;;4.57;2.40;;;;;;;;;;4996024;28;20202;-78
2022/04/19 03:36:35;;;;;;;4.55;2.35;;;;;;;;;;4996901;28;20089;-78
2022/04/19 03:39:03;;;;;;;5.80;2.75;;;;;;;;;;4995200;28;20521;-79
2022/04/19 03:41:30;;;;;;;4.10;2.47;;;;;;;;;;4995583;28;20112;-79
2022/04/19 03:43:57;;;;;;;5.45;2.80;;;;;;;;;;4995109;28;20440;-79
2022/04/19 03:46:24;;;;;;;5.78;3.30;;;;;;;;;;5007087;28;20072;-78
2022/04/19 03:48:50;;;;;;;7.65;3.00;;;;;;;;;;5014446;28;20100;-78
2022/04/19 03:51:17;;;;;;;4.28;2.83;;;;;;;;;;5014292;28;20041;-79
2022/04/19 03:53:44;;;;;;;5.15;2.50;;;;;;;;;;5014017;28;20053;-79
2022/04/19 03:56:12;;;;;;;4.53;2.60;;;;;;;;;;5014632;28;20077;-78
2022/04/19 03:58:39;;;;;;;6.03;2.60;;;;;;;;;;5051486;22;20060;-79
2022/04/19 04:01:06;;;;;;;5.07;2.60;;;;;;;;;;5021534;28;20046;-80
2022/04/19 04:03:33;;;;;;;4.57;2.53;;;;;;;;;;5022630;28;20496;-80
2022/04/19 04:06:00;;;;;;;7.07;2.60;;;;;;;;;;5018497;28;20050;-77
2022/04/19 04:08:27;;;;;;;4.05;2.30;;;;;;;;;;5033086;28;20069;-77
2022/04/19 04:10:55;;;;;;;4.30;2.40;;;;;;;;;;5032281;28;20123;-78
2022/04/19 04:13:23;;;;;;;5.65;2.85;;;;;;;;;;5031329;28;20402;-76
2022/04/19 04:15:49;;;;;;;4.40;2.58;;;;;;;;;;5032810;28;20046;-77
2022/04/19 04:18:16;;;;;;;4.53;2.40;;;;;;;;;;5030531;28;20088;-78
2022/04/19 04:20:43;;;;;;;5.53;3.00;;;;;;;;;;5028710;28;20111;-79
2022/04/19 04:23:10;;;;;;;5.28;2.83;;;;;;;;;;5019985;28;20104;-80
2022/04/19 04:25:36;;;;;;;5.53;3.00;;;;;;;;;;5016708;28;20049;-80
2022/04/19 04:28:03;;;;;;;5.65;2.75;;;;;;;;;;5016200;28;20424;-79
2022/04/19 04:30:32;;;;;;;5.18;2.70;;;;;;;;;;5015889;28;20398;-80
2022/04/19 04:32:58;;;;;;;4.85;2.50;;;;;;;;;;5014114;28;20493;-79
2022/04/19 04:35:25;;;;;;;5.10;2.90;;;;;;;;;;5014184;28;20092;-79
2022/04/19 04:37:52;;;;;;;5.32;2.88;;;;;;;;;;5014381;28;20661;-80
2022/04/19 04:40:19;;;;;;;5.10;2.80;;;;;;;;;;5018044;28;20096;-75
2022/04/19 04:42:45;;;;;;;4.10;2.53;;;;;;;;;;5035613;28;20080;-77
2022/04/19 04:45:12;;;;;;;4.10;2.55;;;;;;;;;;5035189;28;20046;-77
2022/04/19 04:50:25;;;;;;;4.80;2.58;;;;;;;;;;5016809;28;20056;-80
2022/04/19 04:52:53;;;;;;;4.60;2.70;;;;;;;;;;5015421;28;20112;-79
2022/04/19 04:55:20;;;;;;;6.20;2.97;;;;;;;;;;5015760;28;20050;-79
2022/04/19 04:57:47;;;;;;;4.75;2.97;;;;;;;;;;5014651;28;20100;-78
2022/04/19 05:00:14;;;;;;;5.28;2.90;;;;;;;;;;5015676;28;20058;-79
2022/04/19 05:02:44;;;;;;;7.13;3.10;;;;;;;;;;5015168;28;20148;-79
2022/04/19 05:05:10;;;;;;;6.38;2.78;;;;;;;;;;5016930;28;20523;-79
2022/04/19 05:07:38;;;;;;;6.10;3.35;;;;;;;;;;5018338;28;20459;-78
2022/04/19 05:10:06;;;;;;;5.95;2.97;;;;;;;;;;5019197;28;20141;-78
2022/04/19 05:12:33;;;;;;;7.25;3.40;;;;;;;;;;5016909;28;20166;-79
2022/04/19 05:15:00;;;;;;;5.15;3.70;;;;;;;;;;5016637;28;20057;-79
2022/04/19 05:17:27;;;;;;;7.68;3.53;;;;;;;;;;5016752;28;20479;-79
2022/04/19 05:19:55;;;;;;;7.70;3.60;;;;;;;;;;5016365;28;20050;-79
2022/04/19 05:22:22;;;;;;;5.85;3.30;;;;;;;;;;5017170;28;20077;-79
2022/04/19 05:24:49;;;;;;;6.25;3.20;;;;;;;;;;5016767;28;20045;-80
2022/04/19 05:27:16;;;;;;;6.90;3.58;;;;;;;;;;5016279;28;20464;-79
2022/04/19 05:29:43;;;;;;;8.35;3.38;;;;;;;;;;5017431;28;20050;-79
2022/04/19 05:32:10;;;;;;;7.70;4.25;;;;;;;;;;5015612;28;20046;-78
2022/04/19 05:34:37;;;;;;;6.05;3.47;;;;;;;;;;5016084;28;20046;-79
2022/04/19 05:37:07;;;;;;;6.68;3.78;;;;;;;;;;5016398;28;20042;-78
2022/04/19 05:39:33;;;;;;;5.35;3.20;;;;;;;;;;5017052;28;20145;-79
2022/04/19 05:42:00;;;;;;;6.38;3.38;;;;;;;;;;5015134;28;20547;-78
2022/04/19 05:44:27;;;;;;;7.80;3.20;;;;;;;;;;5015166;28;20046;-79
2022/04/19 05:46:54;;;;;;;5.78;3.15;;;;;;;;;;5014409;28;20054;-79
2022/04/19 05:49:21;;;;;;;7.50;3.45;;;;;;;;;;5015040;28;20042;-78
2022/04/19 05:51:47;;;;;;;5.95;3.50;;;;;;;;;;5014350;28;20467;-79
2022/04/19 05:54:15;;;;;;;5.55;3.33;;;;;;;;;;5014390;28;20076;-79
2022/04/19 05:56:42;;;;;;;5.82;3.78;;;;;;;;;;5015844;28;20053;-80
2022/04/19 05:59:09;;;;;;;6.03;3.65;;;;;;;;;;5014777;28;20053;-79
2022/04/19 06:07:04;;;;;;;7.38;4.38;;;;;;;;;;5015898;28;20135;-79
2022/04/19 06:09:32;;;;;;;5.97;3.78;;;;;;;;;;5015840;28;20054;-79
2022/04/19 06:12:00;;;;;;;5.50;3.85;;;;;;;;;;5017196;28;20487;-78
2022/04/19 06:14:27;;;;;;;7.45;3.67;;;;;;;;;;5018518;28;20069;-79
2022/04/19 06:16:54;;;;;;;8.63;3.88;;;;;;;;;;5018238;28;20088;-79
2022/04/19 06:19:21;;;;;;;6.97;3.72;;;;;;;;;;5019569;28;20046;-80
2022/04/19 06:21:48;;;;;;;7.03;3.63;;;;;;;;;;5018067;28;20050;-80
2022/04/19 06:24:14;;;;;;;6.50;3.47;;;;;;;;;;5017371;28;20061;-80
2022/04/19 06:26:42;;;;;;;6.28;3.63;;;;;;;;;;5016429;28;20046;-80
2022/04/19 06:29:09;;;;;;;5.47;3.35;;;;;;;;;;5017183;28;20054;-80
2022/04/19 06:31:36;;;;;;;5.93;3.53;;;;;;;;;;5017652;28;20058;-79
2022/04/19 06:34:03;;;;;;;6.50;3.55;;;;;;;;;;5017715;28;20046;-79
2022/04/19 06:36:29;;;;;;;8.00;3.30;;;;;;;;;;5016933;28;20054;-79
2022/04/19 06:38:56;;;;;;;5.95;3.50;;;;;;;;;;5017237;28;20192;-79
2022/04/19 06:41:23;;;;;;;7.97;3.75;;;;;;;;;;5017271;28;20046;-79
2022/04/19 06:43:51;;;;;;;7.80;4.00;;;;;;;;;;5017330;28;20050;-79
2022/04/19 06:46:18;;;;;;;5.88;3.28;;;;;;;;;;5003480;28;20057;-79
2022/04/19 06:48:45;;;;;;;5.55;3.13;;;;;;;;;;4996673;28;20108;-79
2022/04/19 06:51:12;;;;;;;8.32;3.97;;;;;;;;;;4996758;28;20082;-79
2022/04/19 06:53:39;;;;;;;7.05;4.75;;;;;;;;;;4996564;28;20365;-79
2022/04/19 06:56:06;;;;;;;7.68;3.92;;;;;;;;;;4998024;28;20050;-79
2022/04/19 06:58:33;;;;;;;6.18;3.78;;;;;;;;;;4997621;28;20046;-80
2022/04/19 07:01:01;;;;;;;5.75;4.00;;;;;;;;;;4998093;28;20042;-81
2022/04/19 07:03:28;;;;;;;6.70;3.75;;;;;;;;;;5009107;28;20057;-79
2022/04/19 07:05:55;;;;;;;6.20;3.67;;;;;;;;;;5019063;28;20033;-78
2022/04/19 07:08:21;;;;;;;8.27;4.93;;;;;;;;;;5015469;28;20584;-77
2022/04/19 07:10:48;;;;;;;6.68;4.13;;;;;;;;;;5011523;28;20077;-79
2022/04/19 07:13:15;;;;;;;7.00;3.80;;;;;;;;;;5005221;28;20047;-80
2022/04/19 07:15:42;;;;;;;9.05;3.95;;;;;;;;;;4999585;28;20050;-80
2022/04/19 07:18:10;;;;;;;6.20;3.90;;;;;;;;;;4997691;28;20057;-81
2022/04/19 07:28:49;;;;;;;6.00;3.97;;;;;;;;;;4996016;28;20572;-80
2022/04/19 07:31:16;;;;;;;5.90;3.78;;;;;;;;;;4997508;28;20062;-80
2022/04/19 07:33:44;;;;;;;6.25;4.03;;;;;;;;;;4996748;28;20604;-80
2022/04/19 07:36:11;;;;;;;6.63;4.40;;;;;;;;;;4997883;28;20058;-80
2022/04/19 07:38:38;;;;;;;7.13;3.75;;;;;;;;;;4999037;28;20631;-80
2022/04/19 07:41:06;;;;;;;7.00;3.92;;;;;;;;;;4997592;28;20061;-80
2022/04/19 07:43:33;;;;;;;5.32;3.70;;;;;;;;;;5001346;28;20050;-78
2022/04/19 07:46:00;;;;;;;6.80;3.90;;;;;;;;;;5005117;28;20050;-79
2022/04/19 07:48:27;;;;;;;7.88;4.95;;;;;;;;;;5000300;28;20107;-80
2022/04/19 07:50:55;;;;;;;7.10;4.00;;;;;;;;;;4997081;28;20054;-78
2022/04/19 07:53:22;;;;;;;7.25;3.70;;;;;;;;;;4997129;28;20050;-78
2022/04/19 07:55:50;;;;;;;6.50;4.30;;;;;;;;;;4996192;28;20074;-80
2022/04/19 07:58:16;;;;;;;7.50;4.38;;;;;;;;;;4995148;28;20064;-80
2022/04/19 08:00:43;;;;;;;6.55;4.00;;;;;;;;;;4998200;28;20096;-80
2022/04/19 08:03:10;;;;;;;5.97;3.50;;;;;;;;;;4996087;28;20085;-79
2022/04/19 08:05:37;;;;;;;6.13;3.83;;;;;;;;;;4994759;28;20062;-79
2022/04/19 08:08:06;;;;;;;6.30;4.03;;;;;;;;;;4995413;28;20050;-80
2022/04/19 08:10:33;;;;;;;6.75;3.95;;;;;;;;;;5007984;28;20031;-76
2022/04/19 08:13:00;;;;;;;8.27;4.55;;;;;;;;;;5016274;28;20038;-78
2022/04/19 08:15:27;;;;;;;6.90;4.50;;;;;;;;;;5009708;28;20401;-79
2022/04/19 08:17:53;;;;;;;7.78;4.95;;;;;;;;;;4997468;28;20069;-79
2022/04/19 08:20:21;;;;;;;7.13;4.63;;;;;;;;;;4998743;28;20043;-81
2022/04/19 08:22:47;;;;;;;7.40;4.70;;;;;;;;;;4997919;28;20058;-80
2022/04/19 08:25:15;;;;;;;7.78;4.55;;;;;;;;;;4995995;28;20489;-79
2022/04/19 08:27:45;;;;;;;8.45;5.13;;;;;;;;;;4996409;28;20054;-79
2022/04/19 08:30:13;;;;;;;6.93;4.40;;;;;;;;;;4997176;28;20042;-79
2022/04/19 08:32:40;;;;;;;7.90;5.03;;;;;;;;;;4996370;28;20047;-79
2022/04/19 08:35:08;;;;;;;8.68;5.63;;;;;;;;;;4996551;28;20240;-78
2022/04/19 08:37:35;;;;;;;8.90;5.35;;;;;;;;;;4996356;28;20046;-79
2022/04/19 08:40:03;;;;;;;7.88;5.00;;;;;;;;;;4999149;28;20046;-79
2022/04/19 08:42:32;;;;;;;8.40;5.10;;;;;;;;;;4999437;28;20077;-79
2022/04/19 08:45:02;;;;;;;9.63;5.07;;;;;;;;;;5000666;28;20058;-79
2022/04/19 08:47:31;;;;;;;7.45;4.53;;;;;;;;;;5019510;28;20053;-80
2022/04/19 08:50:02;;;;;;;8.88;5.53;;;;;;;;;;5019477;28;20532;-79
2022/04/19 08:52:29;;;;;;;8.60;5.05;;;;;;;;;;5019773;28;20042;-80
2022/04/19 08:57:41;;;;;;;10.98;6.05;;;;;;;;;;5032788;28;20053;-77
2022/04/19 09:00:09;;;;;;;9.00;5.53;;;;;;;;;;5038783;28;20112;-77
2022/04/19 09:02:38;;;;;;;9.05;5.70;;;;;;;;;;5039570;28;20209;-78
2022/04/19 09:05:16;;;;;;;8.60;5.18;;;;;;;;;;5045284;28;20073;-80
2022/04/19 09:07:45;;;;;;;9.68;5.85;;;;;;;;;;5040227;28;20057;-79
2022/04/19 09:10:14;;;;;;;10.77;6.35;;;;;;;;;;5026139;28;20120;-80
2022/04/19 09:13:00;;;;;;;9.57;5.40;;;;;;;;;;5022144;28;20095;-79
2022/04/19 09:15:33;;;;;;;9.18;5.63;;;;;;;;;;5022359;28;20049;-79
2022/04/19 09:18:01;;;;;;;8.18;5.40;;;;;;;;;;5021523;28;20576;-79
2022/04/19 09:20:28;;;;;;;8.52;5.60;;;;;;;;;;5019857;28;20136;-79
2022/04/19 09:23:03;;;;;;;8.50;5.00;;;;;;;;;;5020839;28;20482;-78
2022/04/19 09:25:30;;;;;;;9.50;5.43;;;;;;;;;;5019503;28;20453;-80
2022/04/19 09:27:59;;;;;;;7.63;5.22;;;;;;;;;;5020110;28;20073;-79
2022/04/19 09:30:28;;;;;;;8.55;5.20;;;;;;;;;;5019742;28;20456;-79
2022/04/19 09:33:04;;;;;;;11.50;6.78;;;;;;;;;;5020525;28;20060;-80
2022/04/19 09:35:32;;;;;;;8.77;5.93;;;;;;;;;;5036919;28;20046;-77
2022/04/19 09:37:59;;;;;;;8.45;5.20;;;;;;;;;;5038541;28;20049;-77
2022/04/19 09:40:30;;;;;;;9.88;5.38;;;;;;;;;;5037178;28;20111;-80
2022/04/19 09:43:06;;;;;;;9.52;5.22;;;;;;;;;;5028388;28;20104;-81
2022/04/19 09:45:46;;;;;;;10.40;5.25;;;;;;;;;;5016546;28;20057;-81
2022/04/19 09:48:16;;;;;;;9.80;5.63;;;;;;;;;;5001385;28;20423;-81
2022/04/19 09:50:48;;;;;;;9.23;6.03;;;;;;;;;;4999581;28;20050;-80
2022/04/19 09:53:18;;;;;;;9.10;5.32;;;;;;;;;;5000663;28;20077;-79
2022/04/19 09:55:48;;;;;;;9.43;5.47;;;;;;;;;;4999579;28;20043;-81
2022/04/19 09:58:17;;;;;;;9.95;5.63;;;;;;;;;;4999419;28;20070;-78
2022/04/19 10:00:44;;;;;;;11.77;6.85;;;;;;;;;;5017443;28;20065;-82
2022/04/19 10:08:42;;;;;;;8.60;5.55;;;;;;;;;;4998797;28;20060;-79
2022/04/19 10:11:10;;;;;;;10.82;6.55;;;;;;;;;;4996640;28;20062;-79
2022/04/19 10:13:40;;;;;;;9.27;5.72;;;;;;;;;;4995868;28;20097;-79
2022/04/19 10:16:12;;;;;;;8.47;5.53;;;;;;;;;;4994628;28;20062;-78
2022/04/19 10:18:39;;;;;;;10.32;6.57;;;;;;;;;;4994080;28;20572;-78
2022/04/19 10:21:09;;;;;;;9.43;5.68;;;;;;;;;;4994390;28;20054;-79
2022/04/19 10:23:37;;;;;;;10.05;5.68;;;;;;;;;;4994556;28;20054;-79
2022/04/19 10:26:18;;;;;;;11.57;6.63;;;;;;;;;;4994577;28;20095;-79
2022/04/19 10:28:47;;;;;;;8.80;5.50;;;;;;;;;;4995034;28;20125;-79
2022/04/19 10:31:24;;;;;;;8.02;5.13;;;;;;;;;;4994342;28;20105;-79
2022/04/19 10:33:52;;;;;;;9.52;5.47;;;;;;;;;;5003871;28;20050;-79
2022/04/19 10:36:24;;;;;;;8.27;5.57;;;;;;;;;;4997349;28;20052;-79
2022/04/19 10:39:22;;;;;;;8.48;5.90;;;;;;;;;;4994119;28;20042;-79
2022/04/19 10:41:55;;;;;;;7.50;5.18;;;;;;;;;;4993994;28;20097;-78
2022/04/19 10:44:28;;;;;;;12.38;6.70;;;;;;;;;;4994527;28;20046;-79
2022/04/19 10:47:11;;;;;;;8.65;5.65;;;;;;;;;;5011025;28;20050;-78
2022/04/19 10:50:01;;;;;;;9.30;6.30;;;;;;;;;;5013590;28;20049;-78
2022/04/19 10:52:50;;;;;;;8.48;6.22;;;;;;;;;;5013177;28;20054;-79
2022/04/19 10:55:27;;;;;;;8.10;5.25;;;;;;;;;;5012844;28;20041;-79
2022/04/19 10:58:17;;;;;;;10.00;5.78;;;;;;;;;;5013308;28;20136;-79
2022/04/19 11:00:56;;;;;;;7.88;5.40;;;;;;;;;;5013713;28;20058;-78
2022/04/19 11:03:41;;;;;;;8.98;5.53;;;;;;;;;;5013036;28;20057;-79
2022/04/19 11:06:31;;;;;;;9.00;5.85;;;;;;;;;;5014055;28;20050;-84
2022/04/19 11:09:07;;;;;;;9.05;5.85;;;;;;;;;;5015855;28;20073;-79
2022/04/19 11:11:45;;;;;;;8.60;5.70;;;;;;;;;;5012965;28;20046;-79
2022/04/19 11:14:36;;;;;;;8.88;5.53;;;;;;;;;;5014115;28;20060;-84
2022/04/19 11:17:28;;;;;;;8.98;5.80;;;;;;;;;;5015542;28;20069;-80
2022/04/19 11:19:56;;;;;;;7.95;5.43;;;;;;;;;;5017160;28;20042;-84
2022/04/19 11:22:42;;;;;;;11.05;5.65;;;;;;;;;;5017136;28;20132;-81
2022/04/19 11:25:09;;;;;;;9.45;5.45;;;;;;;;;;5016696;28;20042;-81
2022/04/19 11:28:13;;;;;;;9.38;5.68;;;;;;;;;;5014747;28;20042;-81
2022/04/19 11:30:44;;;;;;;9.07;6.25;;;;;;;;;;5012967;28;20054;-78
2022/04/19 11:33:21;;;;;;;8.60;5.70;;;;;;;;;;5014462;28;20096;-79
2022/04/19 11:35:59;;;;;;;12.18;8.00;;;;;;;;;;5015091;28;20659;-78
2022/04/19 11:38:26;;;;;;;8.30;5.93;;;;;;;;;;5016531;28;20045;-78
2022/04/19 11:49:09;;;;;;;8.50;5.50;;;;;;;;;;5022398;28;20056;-78
2022/04/19 11:51:37;;;;;;;8.60;5.43;;;;;;;;;;5021911;28;20085;-78
2022/04/19 11:54:05;;;;;;;7.72;5.63;;;;;;;;;;5021305;28;20050;-78
2022/04/19 11:56:33;;;;;;;10.45;5.43;;;;;;;;;;5020524;28;20111;-77
2022/04/19 11:59:02;;;;;;;9.98;5.97;;;;;;;;;;5021334;28;20110;-78
2022/04/19 12:01:29;;;;;;;8.18;5.28;;;;;;;;;;5024012;28;20501;-78
2022/04/19 12:03:56;;;;;;;10.45;6.00;;;;;;;;;;5014888;28;20516;-78
2022/04/19 12:06:24;;;;;;;8.95;5.72;;;;;;;;;;5014578;28;20045;-79
2022/04/19 12:08:53;;;;;;;8.05;5.78;;;;;;;;;;5012922;28;20050;-77
2022/04/19 12:11:22;;;;;;;8.98;6.22;;;;;;;;;;5012703;28;20046;-78
2022/04/19 12:13:50;;;;;;;9.48;5.65;;;;;;;;;;5015138;28;20046;-77
2022/04/19 12:16:31;;;;;;;7.95;5.13;;;;;;;;;;5012284;28;20089;-78
2022/04/19 12:18:58;;;;;;;;;;;;;;;;;;5011812;28;20046;-77
2022/04/19 12:21:38;;;;;;;7.55;4.90;;;;;;;;;;5011472;28;19921;-78
2022/04/19 12:24:06;;;;;;;9.52;5.90;;;;;;;;;;5012145;28;20081;-78
2022/04/19 12:26:33;;;;;;;12.35;7.45;;;;;;;;;;5011478;28;20559;-78
2022/04/19 12:29:09;;;;;;;7.68;5.32;;;;;;;;;;5011862;28;20096;-77
2022/04/19 12:31:39;;;;;;;7.53;5.35;;;;;;;;;;5011663;28;20485;-78
2022/04/19 12:34:06;;;;;;;7.10;5.43;;;;;;;;;;5011252;28;20049;-78
2022/04/19 12:36:43;;;;;;;10.82;6.15;;;;;;;;;;5011335;28;20062;-78
2022/04/19 12:39:10;;;;;;;7.38;5.47;;;;;;;;;;5011498;28;20058;-78
2022/04/19 12:41:39;;;;;;;10.55;5.88;;;;;;;;;;5011247;28;20096;-78
2022/04/19 12:44:08;;;;;;;6.78;5.32;;;;;;;;;;5010449;28;20133;-78
2022/04/19 12:46:40;;;;;;;7.75;5.07;;;;;;;;;;4996839;28;20627;-78
2022/04/19 12:49:07;;;;;;;7.95;5.13;;;;;;;;;;4992143;28;20050;-78
2022/04/19 12:51:36;;;;;;;7.57;4.32;;;;;;;;;;5006197;28;20045;-79
2022/04/19 12:54:08;;;;;;;5.83;4.10;;;;;;;;;;5032207;28;20049;-78
2022/04/19 12:56:35;;;;;;;7.07;4.70;;;;;;;;;;5051106;28;20263;-78
2022/04/19 12:59:02;;;;;;;6.70;4.50;;;;;;;;;;5057095;28;20113;-79
2022/04/19 13:01:29;;;;;;;6.60;4.70;;;;;;;;;;5040036;28;20096;-78
2022/04/19 13:03:56;;;;;;;8.85;4.80;;;;;;;;;;5013616;28;20046;-78
2022/04/19 13:14:37;;;;;;;6.40;4.90;;;;;;;;;;5012342;28;20084;-79
2022/04/19 13:17:04;;;;;;;7.22;4.18;;;;;;;;;;5011903;28;20554;-79
2022/04/19 13:19:30;;;;;;;6.88;4.32;;;;;;;;;;4994593;28;20110;-80
2022/04/19 13:21:57;;;;;;;7.00;4.70;;;;;;;;;;5017773;28;20562;-80
2022/04/19 13:24:26;;;;;;;5.47;3.67;;;;;;;;;;5016709;28;20136;-81
2022/04/19 13:26:53;;;;;;;5.07;3.47;;;;;;;;;;5019654;28;20054;-81
2022/04/19 13:29:20;;;;;;;5.50;3.72;;;;;;;;;;5020482;28;20058;-81
2022/04/19 13:31:46;;;;;;;4.90;3.22;;;;;;;;;;5022915;28;20054;-80
2022/04/19 13:34:13;;;;;;;7.63;4.03;;;;;;;;;;5021818;28;20120;-80
2022/04/19 13:36:40;;;;;;;7.50;3.50;;;;;;;;;;5010271;28;20057;-80
2022/04/19 13:39:07;;;;;;;5.15;3.20;;;;;;;;;;5020982;28;20052;-81
2022/04/19 13:41:38;;;;;;;5.30;3.10;;;;;;;;;;5005021;28;20081;-80
2022/04/19 13:44:09;;;;;;;4.65;2.90;;;;;;;;;;5004332;28;20050;-80
2022/04/19 13:46:36;;;;;;;4.32;2.90;;;;;;;;;;5013316;28;20592;-78
2022/04/19 13:49:03;;;;;;;3.92;2.53;;;;;;;;;;5014926;28;20464;-79
2022/04/19 13:51:30;;;;;;;4.43;2.92;;;;;;;;;;5016276;28;20100;-79
2022/04/19 13:53:57;;;;;;;4.55;2.72;;;;;;;;;;5016401;28;20045;-78
2022/04/19 13:56:24;;;;;;;4.50;2.50;;;;;;;;;;5015862;28;20049;-78
2022/04/19 13:58:53;;;;;;;5.43;2.90;;;;;;;;;;5015807;28;20051;-79
2022/04/19 14:01:20;;;;;;;4.70;2.67;;;;;;;;;;5015732;28;20060;-79
2022/04/19 14:03:47;;;;;;;5.28;2.50;;;;;;;;;;5013759;28;20046;-78
2022/04/19 14:06:14;;;;;;;3.70;2.25;;;;;;;;;;5007858;28;20034;-79
2022/04/19 14:08:41;;;;;;;3.72;2.30;;;;;;;;;;5009357;28;20073;-79
2022/04/19 14:11:08;;;;;;;3.60;2.10;;;;;;;;;;5003844;28;20046;-79
2022/04/19 14:13:35;;;;;;;9.20;4.07;;;;;;;;;;4997535;28;20046;-79
2022/04/19 14:16:03;;;;;;;4.32;2.38;;;;;;;;;;4996891;28;20097;-79
2022/04/19 14:18:30;;;;;;;6.15;2.70;;;;;;;;;;4995751;28;20046;-78
2022/04/19 14:20:57;;;;;;;6.25;2.60;;;;;;;;;;4995972;28;20051;-79
2022/04/19 14:23:24;;;;;;;5.03;2.00;;;;;;;;;;4996490;28;20502;-79
2022/04/19 14:25:50;;;;;;;4.68;2.28;;;;;;;;;;5000404;28;20054;-79
2022/04/19 14:28:17;;;;;;;6.13;2.22;;;;;;;;;;4999269;28;20057;-79
2022/04/19 14:33:30;;;;;;;4.65;2.00;;;;;;;;;;5002940;28;20056;-79
2022/04/19 14:35:56;;;;;;;4.05;2.03;;;;;;;;;;5004893;28;20105;-78
2022/04/19 14:38:23;;;;;;;3.38;1.95;;;;;;;;;;4995982;28;20042;-78
2022/04/19 14:40:51;;;;;;;3.72;2.00;;;;;;;;;;5011439;28;20050;-79
2022/04/19 14:43:18;;;;;;;4.50;2.10;;;;;;;;;;5004762;28;20046;-78
2022/04/19 14:45:45;;;;;;;3.95;1.70;;;;;;;;;;5007005;28;20137;-78
2022/04/19 14:48:12;;;;;;;4.38;2.33;;;;;;;;;;4999700;28;20046;-79
2022/04/19 14:53:20;;;;;;;4.68;2.42;;;;;;;;;;5004010;28;20070;-78
2022/04/19 14:55:47;;;;;;;6.38;2.42;;;;;;;;;;5008480;28;20049;-79
2022/04/19 14:58:14;;;;;;;4.15;2.20;;;;;;;;;;5012885;28;20120;-78
2022/04/19 15:00:41;;;;;;;8.07;2.40;;;;;;;;;;4996589;28;20042;-80
2022/04/19 15:03:08;;;;;;;4.32;2.63;;;;;;;;;;4995858;28;20100;-79
2022/04/19 15:05:36;;;;;;;4.95;2.50;;;;;;;;;;4996283;28;20641;-78
2022/04/19 15:08:05;;;;;;;5.07;2.35;;;;;;;;;;5005726;28;20050;-79
2022/04/19 15:10:32;;;;;;;3.08;1.75;;;;;;;;;;5013593;28;20054;-78
2022/04/19 15:12:58;;;;;;;3.03;1.80;;;;;;;;;;5012983;28;20074;-77
2022/04/19 15:15:25;;;;;;;4.15;2.10;;;;;;;;;;5010968;28;20046;-79
2022/04/19 15:17:52;;;;;;;4.75;2.08;;;;;;;;;;4999444;28;20104;-79
2022/04/19 15:20:19;;;;;;;4.32;2.45;;;;;;;;;;4995700;28;20046;-79
2022/04/19 15:22:46;;;;;;;3.75;1.83;;;;;;;;;;4995085;28;20057;-78
2022/04/19 15:25:14;;;;;;;3.47;1.65;;;;;;;;;;4995050;28;20117;-78
2022/04/19 15:27:41;;;;;;;3.13;1.60;;;;;;;;;;4994796;28;20740;-78
2022/04/19 15:30:08;;;;;;;3.05;1.60;;;;;;;;;;4994485;28;20055;-78
2022/04/19 15:32:35;;;;;;;4.05;2.03;;;;;;;;;;4992999;28;20050;-78
2022/04/19 15:35:02;;;;;;;4.32;2.08;;;;;;;;;;4993068;28;20121;-78
2022/04/19 15:37:28;;;;;;;4.07;2.05;;;;;;;;;;4992947;28;20564;-79
2022/04/19 15:39:55;;;;;;;5.05;2.45;;;;;;;;;;4993542;28;20054;-78
2022/04/19 15:42:24;;;;;;;5.22;2.28;;;;;;;;;;4993241;28;20057;-79
2022/04/19 15:44:50;;;;;;;4.72;2.10;;;;;;;;;;5007731;28;20072;-79